Time;durP1;ratioP1;P1;durP2;ratioP2;P2;SDS_P1;SDS_P2;PMS_P1;PMS_P2;Temp;Humidity;BMP_temperature;BMP_pressure;BME280_temperature;BME280_humidity;BME280_pressure;Samples;Min_cycle;Max_cycle;Signal;HPM_P1;HPM_P2
2022/02/27 00:01:38;;;;;;;24.67;7.30;;;;;;;-0.27;64.71;101579.00;10383765;28;20120;-69
2022/02/27 00:06:42;;;;;;;18.58;6.85;;;;;;;-0.34;65.13;101584.06;10386663;28;20645;-68
2022/02/27 00:11:44;;;;;;;18.45;7.20;;;;;;;-0.40;65.01;101567.72;10390684;28;20081;-69
2022/02/27 00:16:46;;;;;;;15.45;6.93;;;;;;;-0.50;65.38;101571.91;10390620;28;20069;-68
2022/02/27 00:21:48;;;;;;;18.33;6.65;;;;;;;-0.51;65.64;101571.84;10390564;28;20057;-68
2022/02/27 00:26:49;;;;;;;13.80;6.88;;;;;;;-0.72;65.55;101575.03;10387514;28;20056;-68
2022/02/27 00:31:51;;;;;;;18.13;6.97;;;;;;;-0.88;65.59;101567.16;10389716;28;20651;-68
2022/02/27 00:36:53;;;;;;;25.73;9.50;;;;;;;-1.07;65.76;101571.19;10391505;28;20140;-67
2022/02/27 00:41:55;;;;;;;17.58;7.60;;;;;;;-1.04;66.12;101573.78;10387831;28;20056;-68
2022/02/27 00:46:56;;;;;;;23.15;9.60;;;;;;;-0.94;65.78;101580.75;10389841;28;20053;-67
2022/02/27 00:51:58;;;;;;;24.35;10.63;;;;;;;-1.01;65.96;101570.41;10390670;28;20049;-68
2022/02/27 00:57:00;;;;;;;21.67;9.38;;;;;;;-1.17;66.20;101570.19;10388394;28;20568;-68
2022/02/27 01:02:02;;;;;;;25.20;10.32;;;;;;;-1.15;66.39;101567.66;10389382;28;20045;-68
2022/02/27 01:07:04;;;;;;;24.92;10.98;;;;;;;-1.13;66.41;101563.41;10388032;28;20053;-68
2022/02/27 01:12:06;;;;;;;23.42;9.57;;;;;;;-1.15;66.81;101562.53;10388524;28;20046;-67
2022/02/27 01:17:08;;;;;;;34.08;18.75;;;;;;;-1.11;66.68;101560.84;10388215;28;20050;-67
2022/02/27 01:22:10;;;;;;;35.60;17.10;;;;;;;-1.10;66.79;101558.28;10379030;28;20056;-68
2022/02/27 01:27:12;;;;;;;28.08;15.15;;;;;;;-1.05;66.62;101558.34;10383060;28;20049;-68
2022/02/27 01:32:13;;;;;;;37.55;18.80;;;;;;;-1.06;66.13;101552.34;10386713;28;20071;-68
2022/02/27 01:37:18;;;;;;;29.42;15.90;;;;;;;-1.11;66.54;101554.00;10386323;28;20473;-68
2022/02/27 01:42:20;;;;;;;32.60;13.95;;;;;;;-1.08;66.45;101548.06;10386362;28;20053;-68
2022/02/27 01:47:22;;;;;;;28.23;13.75;;;;;;;-1.07;66.51;101549.78;10386747;28;20056;-67
2022/02/27 01:52:24;;;;;;;25.73;12.32;;;;;;;-1.05;66.29;101543.81;10387150;28;20056;-67
2022/02/27 01:57:26;;;;;;;28.85;14.32;;;;;;;-1.11;66.38;101540.31;10384951;28;20369;-67
2022/02/27 02:02:28;;;;;;;26.70;12.40;;;;;;;-1.13;66.34;101535.16;10384703;28;20059;-68
2022/02/27 02:07:30;;;;;;;27.52;13.40;;;;;;;-1.20;66.27;101534.22;10384744;28;20061;-67
2022/02/27 02:12:32;;;;;;;31.80;14.95;;;;;;;-1.22;66.38;101537.59;10384384;28;20230;-69
2022/02/27 02:17:35;;;;;;;27.95;14.70;;;;;;;-1.25;66.45;101523.00;10384677;28;20174;-68
2022/02/27 02:22:37;;;;;;;28.20;10.95;;;;;;;-1.25;66.46;101525.56;10384679;28;20049;-68
2022/02/27 02:27:39;;;;;;;27.52;14.13;;;;;;;-1.28;66.18;101525.56;10383869;28;20056;-68
2022/02/27 02:32:56;;;;;;;25.50;12.13;;;;;;;-1.44;66.53;101518.50;10379720;28;20062;-68
2022/02/27 02:37:57;;;;;;;17.40;9.35;;;;;;;-1.43;66.53;101522.75;10382090;28;20049;-68
2022/02/27 02:42:59;;;;;;;22.80;11.35;;;;;;;-1.52;66.26;101519.22;10383332;28;20042;-68
2022/02/27 02:48:01;;;;;;;32.17;14.15;;;;;;;-1.68;66.38;101523.25;10382679;28;20053;-68
2022/02/27 02:53:02;;;;;;;26.33;11.73;;;;;;;-1.74;66.50;101519.75;10383416;28;20338;-68
2022/02/27 02:58:04;;;;;;;21.90;11.07;;;;;;;-1.85;66.59;101511.00;10382499;28;20049;-68
2022/02/27 03:03:06;;;;;;;24.23;9.38;;;;;;;-1.83;66.62;101509.31;10385834;28;20107;-68
2022/02/27 03:08:08;;;;;;;18.20;9.10;;;;;;;-1.83;66.58;101509.31;10389124;28;20060;-68
2022/02/27 03:13:09;;;;;;;21.55;10.00;;;;;;;-1.82;66.62;101509.38;10388075;28;20049;-68
2022/02/27 03:18:11;;;;;;;20.83;9.07;;;;;;;-1.85;66.74;101505.88;10385691;28;20286;-68
2022/02/27 03:23:13;;;;;;;21.42;9.93;;;;;;;-1.90;66.53;101502.41;10389097;28;20061;-68
2022/02/27 03:28:15;;;;;;;20.33;9.90;;;;;;;-1.94;66.78;101500.63;10390963;28;20770;-67
2022/02/27 03:33:20;;;;;;;24.75;10.32;;;;;;;-1.90;66.65;101502.41;10390056;28;20561;-67
2022/02/27 03:38:22;;;;;;;22.88;10.10;;;;;;;-1.86;66.61;101496.47;10394545;28;20458;-67
2022/02/27 03:43:23;;;;;;;26.40;12.38;;;;;;;-1.93;66.31;101495.50;10403918;28;20069;-67
2022/02/27 03:48:25;;;;;;;27.42;10.73;;;;;;;-2.06;66.47;101503.84;10405016;28;20041;-67
2022/02/27 03:53:27;;;;;;;21.42;9.30;;;;;;;-2.07;66.52;101499.56;10405556;28;20499;-67
2022/02/27 03:58:28;;;;;;;21.00;10.35;;;;;;;-2.12;66.77;101499.47;10405298;28;20055;-68
2022/02/27 04:03:30;;;;;;;24.23;11.15;;;;;;;-2.10;66.81;101502.06;10402001;28;20053;-68
2022/02/27 04:08:32;;;;;;;21.33;9.65;;;;;;;-2.09;66.98;101502.09;10399270;28;20053;-67
2022/02/27 04:13:34;;;;;;;18.63;9.85;;;;;;;-2.18;66.65;101496.81;10383902;28;20056;-67
2022/02/27 04:18:35;;;;;;;26.20;9.93;;;;;;;-2.15;66.67;101498.56;10397194;28;20447;-67
2022/02/27 04:23:37;;;;;;;24.30;9.82;;;;;;;-2.11;66.70;101501.22;10397113;28;20048;-67
2022/02/27 04:28:39;;;;;;;21.80;10.40;;;;;;;-2.13;66.71;101507.16;10397776;28;20501;-67
2022/02/27 04:33:40;;;;;;;21.02;11.00;;;;;;;-2.09;66.90;101509.78;10396890;28;20053;-67
2022/02/27 04:38:42;;;;;;;23.90;11.05;;;;;;;-2.21;66.75;101509.59;10396998;28;20053;-67
2022/02/27 04:43:48;;;;;;;22.23;11.27;;;;;;;-2.23;67.14;101518.94;10397429;28;20602;-67
2022/02/27 04:48:50;;;;;;;18.00;9.77;;;;;;;-2.22;66.88;101510.41;10397124;28;20080;-68
2022/02/27 04:53:52;;;;;;;21.77;10.23;;;;;;;-2.17;66.82;101524.19;10390094;28;20084;-67
2022/02/27 04:58:54;;;;;;;27.73;11.52;;;;;;;-2.20;66.70;101513.00;10388815;28;20045;-67
2022/02/27 05:03:56;;;;;;;29.17;12.45;;;;;;;-2.21;66.79;101519.84;10389595;28;20417;-68
2022/02/27 05:08:58;;;;;;;19.17;9.40;;;;;;;-2.20;66.85;101521.56;10389886;28;20053;-67
2022/02/27 05:13:59;;;;;;;24.02;10.15;;;;;;;-2.19;66.91;101517.28;10389701;28;20136;-66
2022/02/27 05:19:01;;;;;;;24.67;10.02;;;;;;;-2.21;66.61;101512.16;10389007;28;20698;-67
2022/02/27 05:24:03;;;;;;;22.27;11.15;;;;;;;-2.21;66.84;101512.16;10389305;28;20065;-66
2022/02/27 05:29:05;;;;;;;27.75;11.57;;;;;;;-2.24;66.88;101514.66;10388948;28;20045;-67
2022/02/27 05:34:08;;;;;;;21.20;9.52;;;;;;;-2.22;66.85;101515.53;10388911;28;20053;-67
2022/02/27 05:39:09;;;;;;;22.80;10.18;;;;;;;-2.15;66.92;101517.38;10388620;28;20041;-66
2022/02/27 05:44:11;;;;;;;18.60;8.95;;;;;;;-2.11;66.81;101514.03;10388473;28;20207;-66
2022/02/27 05:49:13;;;;;;;27.17;9.48;;;;;;;-2.07;66.81;101517.50;10374048;28;20498;-67
2022/02/27 05:54:15;;;;;;;21.77;9.15;;;;;;;-2.06;66.70;101522.66;10388131;28;20068;-66
2022/02/27 05:59:16;;;;;;;27.20;9.02;;;;;;;-2.03;66.75;101524.41;10388407;28;20045;-67
2022/02/27 06:04:19;;;;;;;24.65;9.18;;;;;;;-2.03;66.66;101532.09;10387018;28;20068;-66
2022/02/27 06:09:20;;;;;;;24.80;9.27;;;;;;;-2.12;66.54;101535.34;10387513;28;20052;-67
2022/02/27 06:14:22;;;;;;;21.83;8.73;;;;;;;-2.11;66.47;101547.34;10387542;28;20430;-67
2022/02/27 06:19:24;;;;;;;19.05;8.02;;;;;;;-2.12;66.70;101540.47;10388193;28;20050;-67
2022/02/27 06:24:25;;;;;;;19.33;7.63;;;;;;;-2.15;66.71;101554.97;10387537;28;20180;-67
2022/02/27 06:29:27;;;;;;;17.48;8.00;;;;;;;-2.08;66.65;101549.94;10386932;28;20068;-67
2022/02/27 06:34:29;;;;;;;15.95;8.25;;;;;;;-1.98;66.40;101563.81;10386556;28;20045;-67
2022/02/27 06:39:30;;;;;;;19.98;7.95;;;;;;;-1.98;66.48;101573.19;10387014;28;20056;-67
2022/02/27 06:44:32;;;;;;;19.50;8.43;;;;;;;-2.03;66.31;101568.84;10385758;28;20057;-67
2022/02/27 06:49:34;;;;;;;20.30;8.00;;;;;;;-1.95;66.63;101579.22;10385997;28;20056;-67
2022/02/27 06:54:36;;;;;;;17.92;8.00;;;;;;;-1.87;66.39;101587.03;10385787;28;20772;-67
2022/02/27 06:59:38;;;;;;;27.83;8.70;;;;;;;-1.74;66.21;101589.84;10385649;28;20046;-66
2022/02/27 07:04:40;;;;;;;17.80;7.97;;;;;;;-1.60;66.21;101587.50;10385646;28;20771;-67
2022/02/27 07:09:42;;;;;;;19.25;8.48;;;;;;;-1.43;66.04;101601.47;10384223;28;20082;-68
2022/02/27 07:14:44;;;;;;;15.88;7.78;;;;;;;-1.34;65.92;101607.59;10385272;28;20064;-67
2022/02/27 07:19:46;;;;;;;16.35;7.95;;;;;;;-1.19;65.72;101606.97;10385132;28;20513;-68
2022/02/27 07:24:51;;;;;;;25.23;8.75;;;;;;;-1.03;65.48;101598.63;10384670;28;20053;-67
2022/02/27 07:29:54;;;;;;;17.77;9.02;;;;;;;-0.86;65.34;101597.13;10378528;28;20045;-67
2022/02/27 07:34:56;;;;;;;20.55;8.30;;;;;;;-0.72;65.39;101595.59;10384492;28;20057;-67
2022/02/27 07:39:58;;;;;;;19.38;8.38;;;;;;;-0.48;65.64;101590.78;10384725;28;20514;-68
2022/02/27 07:45:00;;;;;;;18.52;7.55;;;;;;;-0.21;65.16;101586.78;10383572;28;20485;-68
2022/02/27 07:50:02;;;;;;;17.13;7.20;;;;;;;0.16;64.68;101587.13;10383712;28;20076;-67
2022/02/27 07:55:04;;;;;;;14.50;7.10;;;;;;;0.52;64.03;101587.41;10382931;28;20044;-67
2022/02/27 08:00:07;;;;;;;17.33;8.23;;;;;;;0.81;63.36;101582.44;10382583;28;20049;-67
2022/02/27 08:05:09;;;;;;;18.98;7.65;;;;;;;0.91;62.75;101581.66;10384711;28;20095;-67
2022/02/27 08:10:11;;;;;;;15.13;7.32;;;;;;;1.22;62.32;101575.81;10383237;28;20077;-67
2022/02/27 08:15:14;;;;;;;18.80;7.32;;;;;;;1.43;61.90;101563.84;10381680;28;20441;-67
2022/02/27 08:20:16;;;;;;;17.75;7.88;;;;;;;1.81;61.50;101575.13;10383126;28;20135;-67
2022/02/27 08:25:18;;;;;;;19.42;7.25;;;;;;;2.27;61.10;101578.63;10385290;28;20136;-67
2022/02/27 08:30:19;;;;;;;19.45;7.50;;;;;;;2.65;59.99;101582.03;10386701;28;20395;-67
2022/02/27 08:35:21;;;;;;;16.65;7.03;;;;;;;3.03;59.15;101577.66;10387874;28;20051;-67
2022/02/27 08:40:23;;;;;;;16.10;7.68;;;;;;;3.29;59.03;101567.22;10390329;28;20072;-67
2022/02/27 08:45:25;;;;;;;16.05;7.53;;;;;;;3.33;58.47;101576.69;10380222;28;20563;-67
2022/02/27 08:50:26;;;;;;;15.90;7.55;;;;;;;3.47;58.23;101573.19;10390664;28;20038;-67
2022/02/27 08:55:29;;;;;;;16.08;6.90;;;;;;;3.77;57.69;101582.50;10391442;28;20482;-67
2022/02/27 09:00:31;;;;;;;15.93;6.55;;;;;;;4.10;56.97;101579.72;10391311;28;20056;-67
2022/02/27 09:05:34;;;;;;;19.70;8.25;;;;;;;4.30;56.84;101564.91;10391997;28;20052;-67
2022/02/27 09:10:36;;;;;;;14.75;6.30;;;;;;;4.50;55.42;101573.34;10390766;28;20099;-67
2022/02/27 09:15:39;;;;;;;16.80;7.32;;;;;;;4.74;55.39;101568.81;10389177;28;20060;-67
2022/02/27 09:20:45;;;;;;;18.88;8.48;;;;;;;4.87;55.43;101560.03;10389524;28;20055;-68
2022/02/27 09:25:47;;;;;;;17.73;7.13;;;;;;;4.98;54.04;101556.47;10387400;28;20049;-65
2022/02/27 09:31:09;;;;;;;17.67;6.32;;;;;;;4.98;54.36;101556.47;10388725;28;20049;-65
2022/02/27 09:36:11;;;;;;;18.50;6.78;;;;;;;5.06;54.71;101567.59;10386658;28;20059;-64
2022/02/27 09:41:13;;;;;;;15.18;6.72;;;;;;;5.31;53.69;101552.63;10380107;28;20146;-65
2022/02/27 09:46:15;;;;;;;14.90;6.32;;;;;;;5.53;53.45;101548.88;10376117;28;20068;-65
2022/02/27 09:51:17;;;;;;;18.92;6.47;;;;;;;5.51;52.94;101540.25;10376505;28;20046;-65
2022/02/27 09:56:20;;;;;;;14.00;6.13;;;;;;;5.77;52.61;101530.34;10381656;28;20619;-65
2022/02/27 10:01:22;;;;;;;10.73;5.05;;;;;;;5.97;51.87;101530.91;10384388;28;20156;-65
2022/02/27 10:06:24;;;;;;;11.07;4.80;;;;;;;6.21;50.44;101530.50;10385725;28;20592;-65
2022/02/27 10:11:25;;;;;;;11.63;4.75;;;;;;;6.56;50.55;101540.31;10385461;28;20056;-65
2022/02/27 10:16:30;;;;;;;8.20;3.58;;;;;;;6.72;49.23;101522.69;10387090;28;20037;-65
2022/02/27 10:21:41;;;;;;;11.63;3.72;;;;;;;6.67;46.24;101522.81;10387421;28;20053;-65
2022/02/27 10:26:52;;;;;;;8.40;3.50;;;;;;;6.42;46.53;101518.06;10386594;28;20056;-65
2022/02/27 10:31:56;;;;;;;7.88;3.72;;;;;;;6.46;45.59;101519.72;10387718;28;20053;-65
2022/02/27 10:37:07;;;;;;;7.65;3.55;;;;;;;6.62;46.76;101522.00;10386808;28;20103;-65
2022/02/27 10:42:21;;;;;;;7.85;3.28;;;;;;;7.00;43.78;101523.88;10385397;28;20049;-65
2022/02/27 10:47:31;;;;;;;7.13;3.03;;;;;;;7.02;44.61;101511.72;10386570;28;20061;-65
2022/02/27 10:52:33;;;;;;;6.60;3.17;;;;;;;7.04;45.15;101515.97;10385944;28;20136;-65
2022/02/27 10:57:40;;;;;;;9.00;3.40;;;;;;;6.95;43.89;101499.72;10386614;28;20059;-65
2022/02/27 11:02:57;;;;;;;6.75;2.95;;;;;;;6.93;41.45;101502.34;10385945;28;20133;-66
2022/02/27 11:08:02;;;;;;;6.38;2.97;;;;;;;6.88;42.73;101500.72;10385916;28;20057;-65
2022/02/27 11:13:09;;;;;;;8.30;3.58;;;;;;;6.99;42.93;101498.75;10386758;28;20055;-66
2022/02/27 11:18:11;;;;;;;7.40;3.03;;;;;;;7.03;42.58;101497.81;10385983;28;20089;-65
2022/02/27 11:23:13;;;;;;;6.97;2.85;;;;;;;6.94;42.48;101491.03;10385584;28;20053;-66
2022/02/27 11:28:18;;;;;;;8.02;3.30;;;;;;;7.08;43.24;101483.81;10385647;28;20071;-66
2022/02/27 11:33:23;;;;;;;6.03;3.03;;;;;;;7.17;42.07;101486.22;10383801;28;20061;-65
2022/02/27 11:38:38;;;;;;;7.50;4.00;;;;;;;7.22;42.38;101473.13;10384883;28;20053;-65
2022/02/27 11:43:54;;;;;;;7.22;3.08;;;;;;;7.33;42.26;101467.66;10385424;28;20059;-65
2022/02/27 11:49:25;;;;;;;8.85;3.00;;;;;;;7.24;39.38;101455.75;10385623;28;20646;-66
2022/02/27 11:54:37;;;;;;;5.83;2.87;;;;;;;7.55;41.37;101471.53;10385460;28;20049;-66
2022/02/27 11:59:49;;;;;;;6.82;2.80;;;;;;;7.40;39.04;101451.03;10387032;28;20064;-65
2022/02/27 12:04:55;;;;;;;6.30;2.97;;;;;;;7.51;40.16;101451.66;10393435;28;20055;-66
2022/02/27 12:10:01;;;;;;;5.53;2.70;;;;;;;7.49;38.54;101446.47;10393491;28;20152;-66
2022/02/27 12:15:27;;;;;;;8.80;2.80;;;;;;;7.54;37.57;101443.78;10393844;28;20111;-66
2022/02/27 12:20:50;;;;;;;7.32;3.40;;;;;;;7.69;38.60;101439.03;10392297;28;20099;-66
2022/02/27 12:25:57;;;;;;;10.25;3.63;;;;;;;7.77;40.90;101431.91;10392738;28;20511;-66
2022/02/27 12:30:59;;;;;;;5.88;2.85;;;;;;;7.61;39.38;101429.72;10390380;28;20518;-66
2022/02/27 12:36:01;;;;;;;8.15;3.45;;;;;;;7.62;40.07;101427.09;10391890;28;20056;-65
2022/02/27 12:41:04;;;;;;;7.05;2.95;;;;;;;7.72;39.59;101433.78;10391954;28;20049;-66
2022/02/27 12:46:06;;;;;;;8.77;3.80;;;;;;;7.76;39.68;101425.00;10391931;28;20053;-66
2022/02/27 12:51:08;;;;;;;7.65;3.20;;;;;;;7.96;39.42;101422.75;10391790;28;20050;-66
2022/02/27 12:56:10;;;;;;;8.60;3.60;;;;;;;7.95;39.73;101415.84;10390577;28;20444;-66
2022/02/27 13:01:12;;;;;;;8.98;3.47;;;;;;;7.90;40.19;101422.91;10390197;28;20047;-66
2022/02/27 13:06:15;;;;;;;6.05;3.28;;;;;;;7.91;40.47;101427.25;10390595;28;20581;-66
2022/02/27 13:11:37;;;;;;;8.38;3.20;;;;;;;7.77;39.07;101423.25;10390281;28;20049;-65
2022/02/27 13:16:40;;;;;;;7.40;3.53;;;;;;;8.12;40.91;101420.63;10389170;28;20433;-66
2022/02/27 13:21:48;;;;;;;7.72;3.20;;;;;;;8.15;40.39;101412.75;10390028;28;20141;-65
2022/02/27 13:26:50;;;;;;;6.38;2.92;;;;;;;8.23;39.56;101404.72;10390641;28;20508;-66
2022/02/27 13:31:52;;;;;;;7.13;3.10;;;;;;;8.10;39.45;101406.78;10387779;28;20064;-66
2022/02/27 13:36:54;;;;;;;6.03;3.05;;;;;;;8.28;39.04;101397.63;10371763;28;20060;-66
2022/02/27 13:41:56;;;;;;;9.02;3.60;;;;;;;8.24;39.55;101390.81;10389483;28;20049;-66
2022/02/27 13:46:57;;;;;;;9.95;3.28;;;;;;;8.21;38.43;101386.53;10389343;28;20140;-65
2022/02/27 13:52:03;;;;;;;8.20;3.20;;;;;;;8.26;38.85;101389.84;10388211;28;20050;-65
2022/02/27 13:57:08;;;;;;;6.32;2.92;;;;;;;8.31;37.85;101390.59;10389251;28;20102;-65
2022/02/27 14:02:10;;;;;;;7.25;3.13;;;;;;;8.25;39.11;101382.06;10387290;28;20575;-66
2022/02/27 14:07:15;;;;;;;6.78;3.30;;;;;;;8.39;37.48;101372.97;10388930;28;20053;-66
2022/02/27 14:12:19;;;;;;;7.13;3.35;;;;;;;8.39;38.25;101374.72;10388000;28;20052;-66
2022/02/27 14:17:23;;;;;;;6.68;3.90;;;;;;;8.49;37.83;101378.78;10388049;28;20128;-65
2022/02/27 14:22:34;;;;;;;8.82;3.20;;;;;;;8.40;37.76;101371.22;10387611;28;20677;-66
2022/02/27 14:27:36;;;;;;;6.43;3.53;;;;;;;8.17;38.64;101368.41;10388039;28;20509;-66
2022/02/27 14:32:37;;;;;;;7.10;3.55;;;;;;;8.42;38.36;101361.63;10386283;28;20065;-66
2022/02/27 14:37:39;;;;;;;8.05;3.22;;;;;;;8.54;37.72;101362.13;10388029;28;20587;-65
2022/02/27 14:42:41;;;;;;;8.10;3.50;;;;;;;8.47;38.03;101360.59;10387384;28;20049;-66
2022/02/27 14:47:42;;;;;;;7.78;3.58;;;;;;;8.54;38.07;101350.84;10387380;28;20547;-65
2022/02/27 14:52:44;;;;;;;11.80;3.28;;;;;;;8.49;38.43;101353.56;10387417;28;20064;-65
2022/02/27 14:57:48;;;;;;;7.90;3.28;;;;;;;8.57;38.68;101353.34;10368538;28;20072;-65
2022/02/27 15:02:50;;;;;;;11.20;3.42;;;;;;;8.50;39.10;101339.66;10387151;28;20099;-65
2022/02/27 15:07:52;;;;;;;9.40;3.85;;;;;;;8.49;38.43;101337.06;10386011;28;20049;-65
2022/02/27 15:12:55;;;;;;;7.78;3.40;;;;;;;8.35;39.48;101344.44;10384805;28;20054;-65
2022/02/27 15:17:57;;;;;;;8.15;3.30;;;;;;;8.30;38.45;101343.72;10386369;28;20045;-65
2022/02/27 15:23:01;;;;;;;10.23;6.00;;;;;;;8.32;38.33;101336.72;10386083;28;20046;-65
2022/02/27 15:28:05;;;;;;;7.75;3.30;;;;;;;8.32;37.66;101327.16;10384332;28;20247;-65
2022/02/27 15:33:07;;;;;;;10.82;4.20;;;;;;;8.24;38.91;101333.47;10385510;28;20528;-65
2022/02/27 15:38:09;;;;;;;14.45;8.05;;;;;;;8.35;38.53;101334.00;10385940;28;20409;-65
2022/02/27 15:43:10;;;;;;;9.45;5.18;;;;;;;8.14;39.08;101329.41;10385604;28;20115;-66
2022/02/27 15:48:12;;;;;;;10.93;4.88;;;;;;;7.90;40.10;101318.72;10385028;28;20168;-65
2022/02/27 15:53:14;;;;;;;10.07;3.83;;;;;;;7.83;39.94;101326.75;10385254;28;20062;-66
2022/02/27 15:58:15;;;;;;;12.05;6.80;;;;;;;7.71;39.48;101333.09;10384791;28;20053;-66
2022/02/27 16:03:17;;;;;;;7.78;3.08;;;;;;;7.56;39.38;101337.84;10385516;28;20461;-65
2022/02/27 16:08:19;;;;;;;7.45;3.70;;;;;;;7.47;40.17;101333.72;10385905;28;20053;-65
2022/02/27 16:13:21;;;;;;;52.50;36.15;;;;;;;7.34;40.65;101337.53;10385220;28;20128;-66
2022/02/27 16:18:23;;;;;;;11.45;4.25;;;;;;;7.11;40.77;101339.81;10385025;28;20069;-66
2022/02/27 16:23:24;;;;;;;5.90;3.08;;;;;;;6.97;41.08;101354.88;10384229;28;20103;-66
2022/02/27 16:28:26;;;;;;;29.15;19.05;;;;;;;6.76;41.07;101352.75;10384949;28;20064;-65
2022/02/27 16:33:28;;;;;;;8.57;4.13;;;;;;;6.55;40.67;101364.44;10385038;28;20054;-65
2022/02/27 16:38:30;;;;;;;8.13;4.90;;;;;;;6.50;41.35;101368.91;10383730;28;20041;-65
2022/02/27 16:43:34;;;;;;;13.45;6.55;;;;;;;6.29;41.96;101371.91;10385010;28;20132;-65
2022/02/27 16:48:36;;;;;;;8.02;3.70;;;;;;;6.07;42.33;101371.44;10388996;28;20050;-65
2022/02/27 16:53:37;;;;;;;6.80;3.00;;;;;;;5.92;41.96;101381.25;10391544;28;20748;-65
2022/02/27 16:58:39;;;;;;;33.67;26.63;;;;;;;5.80;42.84;101387.50;10391218;28;20045;-66
2022/02/27 17:03:42;;;;;;;21.90;19.55;;;;;;;5.61;43.32;101386.13;10391742;28;20052;-66
2022/02/27 17:08:43;;;;;;;8.65;4.63;;;;;;;5.45;43.77;101385.47;10391460;28;20149;-65
2022/02/27 17:13:45;;;;;;;8.00;3.35;;;;;;;5.29;43.83;101383.16;10387774;28;20034;-66
2022/02/27 17:18:47;;;;;;;11.60;7.70;;;;;;;5.14;44.42;101393.75;10388628;28;20061;-65
2022/02/27 17:23:49;;;;;;;7.68;3.60;;;;;;;5.04;44.42;101398.22;10386756;28;20054;-66
2022/02/27 17:28:51;;;;;;;7.55;3.97;;;;;;;4.94;44.58;101404.41;10389083;28;20054;-65
2022/02/27 17:33:56;;;;;;;97.85;57.85;;;;;;;4.83;45.42;101401.09;10371200;28;20053;-66
2022/02/27 17:38:58;;;;;;;8.60;3.92;;;;;;;4.76;44.72;101411.56;10386375;28;20063;-65
2022/02/27 17:44:04;;;;;;;8.00;3.13;;;;;;;4.70;44.62;101402.97;10384342;28;20469;-65
2022/02/27 17:49:10;;;;;;;7.50;3.17;;;;;;;4.64;44.98;101410.84;10388298;28;20055;-66
2022/02/27 17:54:13;;;;;;;6.80;3.38;;;;;;;4.59;44.87;101414.38;10388221;28;20075;-66
2022/02/27 17:59:15;;;;;;;11.18;3.63;;;;;;;4.47;45.07;101409.31;10387386;28;20553;-66
2022/02/27 18:04:17;;;;;;;7.38;3.47;;;;;;;4.40;45.49;101411.13;10387915;28;20056;-65
2022/02/27 18:09:19;;;;;;;8.98;3.72;;;;;;;4.32;45.74;101414.66;10387965;28;20652;-65
2022/02/27 18:14:21;;;;;;;6.95;3.67;;;;;;;4.23;46.40;101415.63;10387677;28;20057;-66
2022/02/27 18:19:24;;;;;;;7.35;3.45;;;;;;;4.13;47.25;101419.16;10386172;28;20520;-66
2022/02/27 18:24:25;;;;;;;6.07;3.20;;;;;;;4.01;47.32;101419.28;10387283;28;20389;-65
2022/02/27 18:29:27;;;;;;;7.70;3.50;;;;;;;3.94;47.82;101432.31;10387476;28;20409;-65
2022/02/27 18:34:29;;;;;;;8.90;3.55;;;;;;;3.86;47.67;101434.97;10386621;28;20049;-66
2022/02/27 18:39:30;;;;;;;8.07;3.10;;;;;;;3.62;48.32;101424.78;10387437;28;20486;-65
2022/02/27 18:44:34;;;;;;;8.50;3.38;;;;;;;3.55;48.76;101431.75;10386579;28;20060;-66
2022/02/27 18:49:36;;;;;;;7.00;3.30;;;;;;;3.51;47.79;101442.97;10386354;28;20064;-66
2022/02/27 18:54:38;;;;;;;8.15;3.75;;;;;;;3.53;47.99;101435.19;10385988;28;20115;-65
2022/02/27 18:59:40;;;;;;;7.88;4.20;;;;;;;3.43;47.80;101438.72;10386211;28;20084;-66
2022/02/27 19:04:41;;;;;;;10.23;4.75;;;;;;;3.25;48.02;101444.88;10385243;28;20049;-65
2022/02/27 19:09:43;;;;;;;9.98;4.05;;;;;;;3.16;48.19;101439.75;10385695;28;20063;-65
2022/02/27 19:14:45;;;;;;;8.90;4.50;;;;;;;3.02;48.59;101441.56;10385702;28;20059;-66
2022/02/27 19:19:47;;;;;;;10.60;5.15;;;;;;;2.77;49.57;101452.84;10385478;28;20075;-65
2022/02/27 19:24:49;;;;;;;11.55;5.38;;;;;;;2.59;50.08;101450.34;10384769;28;20552;-65
2022/02/27 19:29:51;;;;;;;10.95;4.57;;;;;;;2.51;50.00;101442.63;10385448;28;20079;-65
2022/02/27 19:34:52;;;;;;;10.45;5.20;;;;;;;2.38;50.87;101440.91;10384495;28;20188;-65
2022/02/27 19:39:54;;;;;;;16.02;6.05;;;;;;;2.28;51.24;101449.53;10385788;28;20087;-66
2022/02/27 19:44:56;;;;;;;11.55;6.25;;;;;;;2.21;51.65;101447.84;10384335;28;20049;-65
2022/02/27 19:49:58;;;;;;;13.60;6.90;;;;;;;2.06;51.78;101448.72;10385262;28;20059;-65
2022/02/27 19:55:00;;;;;;;11.95;6.78;;;;;;;2.04;52.68;101445.31;10385245;28;20136;-65
2022/02/27 20:00:04;;;;;;;12.05;6.47;;;;;;;2.00;52.73;101447.88;10384897;28;20095;-65
2022/02/27 20:05:06;;;;;;;12.00;6.22;;;;;;;1.94;52.86;101443.59;10383693;28;20049;-66
2022/02/27 20:15:29;;;;;;;12.95;6.47;;;;;;;1.85;53.29;101453.03;10384685;28;20053;-65
2022/02/27 20:20:31;;;;;;;12.60;6.75;;;;;;;1.80;53.39;101465.94;10384173;28;20068;-65
2022/02/27 20:25:33;;;;;;;12.20;6.50;;;;;;;1.77;53.57;101458.19;10391844;28;20065;-65
2022/02/27 20:30:35;;;;;;;11.90;6.28;;;;;;;1.79;53.52;101453.03;10391983;28;20053;-65
2022/02/27 20:35:37;;;;;;;10.07;5.95;;;;;;;1.81;53.49;101448.72;10392047;28;20046;-65
2022/02/27 20:40:38;;;;;;;12.68;6.40;;;;;;;1.73;53.62;101455.59;10391733;28;20136;-65
2022/02/27 20:45:40;;;;;;;13.73;6.43;;;;;;;1.71;53.74;101462.47;10391508;28;20394;-64
2022/02/27 20:50:42;;;;;;;11.85;6.00;;;;;;;1.63;53.57;101464.19;10392048;28;20053;-65
2022/02/27 20:55:44;;;;;;;14.68;6.50;;;;;;;1.61;53.97;101465.91;10391534;28;20055;-65
2022/02/27 21:00:46;;;;;;;11.65;6.70;;;;;;;1.49;54.06;101466.78;10390503;28;20524;-67
2022/02/27 21:05:48;;;;;;;13.10;8.02;;;;;;;1.40;54.30;101473.63;10391293;28;20144;-65
2022/02/27 21:10:50;;;;;;;13.20;7.63;;;;;;;1.33;54.45;101478.78;10389921;28;20049;-65
2022/02/27 21:15:51;;;;;;;13.88;8.13;;;;;;;1.31;54.79;101475.34;10381617;28;20056;-65
2022/02/27 21:20:53;;;;;;;17.50;10.63;;;;;;;1.27;54.99;101483.94;10386066;28;20414;-65
2022/02/27 21:25:55;;;;;;;22.42;11.85;;;;;;;1.09;55.04;101486.44;10388902;28;20050;-65
2022/02/27 21:30:58;;;;;;;15.77;8.20;;;;;;;1.02;55.82;101487.25;10387626;28;20478;-66
2022/02/27 21:36:01;;;;;;;14.63;8.00;;;;;;;1.01;55.71;101490.72;10388530;28;20053;-66
2022/02/27 21:41:03;;;;;;;18.88;9.70;;;;;;;1.00;55.95;101495.84;10388831;28;20498;-66
2022/02/27 21:46:05;;;;;;;18.45;11.43;;;;;;;0.92;55.98;101498.38;10389408;28;20061;-65
2022/02/27 21:51:07;;;;;;;17.80;9.80;;;;;;;0.86;55.89;101489.78;10388870;28;20240;-65
2022/02/27 21:56:09;;;;;;;15.60;8.50;;;;;;;0.68;55.96;101500.84;10389201;28;20055;-66
2022/02/27 22:01:10;;;;;;;19.05;8.43;;;;;;;0.66;56.67;101506.84;10388661;28;20064;-66
2022/02/27 22:06:12;;;;;;;18.98;10.93;;;;;;;0.64;56.60;101504.25;10388439;28;20506;-66
2022/02/27 22:11:14;;;;;;;18.88;10.27;;;;;;;0.59;56.61;101505.09;10388027;28;20212;-66
2022/02/27 22:16:16;;;;;;;24.95;13.52;;;;;;;0.45;56.70;101499.84;10388239;28;20067;-66
2022/02/27 22:21:17;;;;;;;31.80;15.52;;;;;;;0.38;57.14;101491.22;10381296;28;20859;-65
2022/02/27 22:26:20;;;;;;;31.35;14.10;;;;;;;0.33;57.20;101499.78;10383041;28;20045;-66
2022/02/27 22:31:22;;;;;;;19.58;11.30;;;;;;;0.22;57.30;101499.69;10382833;28;20053;-66
2022/02/27 22:36:24;;;;;;;13.88;8.07;;;;;;;0.14;57.65;101498.78;10387229;28;20511;-65
2022/02/27 22:41:26;;;;;;;25.33;12.23;;;;;;;0.05;57.71;101497.84;10385046;28;20057;-65
2022/02/27 22:46:27;;;;;;;15.80;9.00;;;;;;;-0.02;58.04;101498.63;10384888;28;20510;-65
2022/02/27 22:51:31;;;;;;;21.02;12.02;;;;;;;-0.05;58.37;101486.66;10387164;28;20144;-65
2022/02/27 22:56:35;;;;;;;16.52;8.45;;;;;;;-0.06;58.31;101502.03;10385412;28;20220;-65
2022/02/27 23:01:36;;;;;;;17.08;9.50;;;;;;;-0.18;58.44;101501.94;10386097;28;20057;-65
2022/02/27 23:06:38;;;;;;;19.00;10.57;;;;;;;-0.32;58.91;101505.25;10386723;28;20057;-65
2022/02/27 23:11:40;;;;;;;13.98;7.80;;;;;;;-0.31;59.00;101516.38;10387282;28;20136;-65